Hlavní strana
METAR-TAF:

METAR-TAF

Letiště :

Sandane, Norsko

zeměpisná šířka: 61-50N, zeměpisná délka: 006-07E, výška: 6 m

Aktuální stav počasí

Zpráva byla vytvořena před 37 minutami, v 11:50 UTC
vítr z různých směrů 3 kt
Teplota 7°C
Vlhkost vzduchu 87%
Tlak 1028 hPa
Viditelnost 10 km a více
Skoro jasno ve výšce 2000 ft
Oblačno až skoro zataženo ve výšce 3500 ft

METAR: ENSD 011150Z VRB03KT 9999 FEW020 BKN035 07/05 Q1028 RMK WIND 1138FT VRB07KT

Čas: 13:27 (12:27 UTC)


TAF: chybějící

Stav a předpovědi počasí z více než 4 000 letišť (zprávy METAR a TAF).

Červené a žluté tečky na mapě představují dostupné meteorologické stanice.

Když kurzor umístíte na tečku, zobrazí se název stanice.

Pak kliknutím zobrazíte stav a předpověď počasí.

Chcete-li změnit mapu, kliknutím na zelené tlačítko se znaménkem +mapu přiblížíte, kliknutím na zelené tlačítko se znaménkem – mapu oddálíte a kliknutím na zelené šipky přejdete na sousední mapy.


METAR-TAF: